createdAt,value
2022-12-08T00:01:06.549Z,2.30
2022-12-08T00:03:54.237Z,3.23
2022-12-08T00:07:00.478Z,2.73
2022-12-08T00:09:47.263Z,2.07
2022-12-08T00:12:34.556Z,2.33
2022-12-08T00:15:23.156Z,1.80
2022-12-08T00:18:10.271Z,2.23
2022-12-08T00:20:57.836Z,1.93
2022-12-08T00:23:45.431Z,2.93
2022-12-08T00:26:32.636Z,2.70
2022-12-08T00:29:20.228Z,2.40
2022-12-08T00:32:08.785Z,1.87
2022-12-08T00:34:55.824Z,2.60
2022-12-08T00:37:42.699Z,1.47
2022-12-08T00:40:30.146Z,2.83
2022-12-08T00:43:17.318Z,2.07
2022-12-08T00:46:04.328Z,2.60
2022-12-08T00:48:52.922Z,1.43
2022-12-08T00:51:40.208Z,2.17
2022-12-08T00:54:27.451Z,1.80
2022-12-08T00:57:14.231Z,2.00
2022-12-08T01:00:01.800Z,1.87
2022-12-08T01:02:49.151Z,2.57
2022-12-08T01:05:38.039Z,1.70
2022-12-08T01:08:25.293Z,1.50
2022-12-08T01:11:14.510Z,2.40
2022-12-08T01:14:01.796Z,2.57
2022-12-08T01:16:49.335Z,1.93
2022-12-08T01:19:36.625Z,2.10
2022-12-08T01:22:25.651Z,2.43
2022-12-08T01:25:13.844Z,1.87
2022-12-08T01:28:00.762Z,1.30
2022-12-08T01:30:47.818Z,1.77
2022-12-08T01:33:34.723Z,2.07
2022-12-08T01:36:23.628Z,2.47
2022-12-08T01:39:17.385Z,1.47
2022-12-08T01:42:04.876Z,2.03
2022-12-08T01:44:56.723Z,1.60
2022-12-08T01:47:48.599Z,1.37
2022-12-08T01:50:36.663Z,1.37
2022-12-08T01:53:28.408Z,1.53
2022-12-08T01:56:21.811Z,1.67
2022-12-08T01:59:08.898Z,1.63
2022-12-08T02:01:56.241Z,1.97
2022-12-08T02:04:43.591Z,1.37
2022-12-08T02:07:30.654Z,1.53
2022-12-08T02:10:19.868Z,1.40
2022-12-08T02:13:12.429Z,2.47
2022-12-08T02:16:05.062Z,1.60
2022-12-08T02:19:29.789Z,1.23
2022-12-08T02:22:15.674Z,1.40
2022-12-08T02:25:08.781Z,1.20
2022-12-08T02:28:05.393Z,2.10
2022-12-08T02:31:03.771Z,1.63
2022-12-08T02:34:13.626Z,1.77
2022-12-08T02:37:09.385Z,1.90
2022-12-08T02:40:04.644Z,1.97
2022-12-08T02:43:00.005Z,1.50
2022-12-08T02:45:51.529Z,1.73
2022-12-08T02:48:39.212Z,2.10
2022-12-08T02:51:27.714Z,2.00
2022-12-08T02:54:16.268Z,1.47
2022-12-08T02:57:18.277Z,1.47
2022-12-08T03:00:09.901Z,1.50
2022-12-08T03:03:07.860Z,1.83
2022-12-08T03:06:06.767Z,1.67
2022-12-08T03:08:59.864Z,1.37
2022-12-08T03:11:51.839Z,0.67
2022-12-08T03:14:41.978Z,1.30
2022-12-08T03:17:32.450Z,1.33
2022-12-08T03:20:22.524Z,1.53
2022-12-08T03:23:13.010Z,1.47
2022-12-08T03:26:06.079Z,1.37
2022-12-08T03:28:53.191Z,1.53
2022-12-08T03:31:44.091Z,1.83
2022-12-08T03:34:32.049Z,1.53
2022-12-08T03:37:19.904Z,1.60
2022-12-08T03:40:11.239Z,1.87
2022-12-08T03:43:00.141Z,1.63
2022-12-08T03:45:47.245Z,1.00
2022-12-08T03:48:34.580Z,0.83
2022-12-08T03:51:21.689Z,1.67
2022-12-08T03:54:08.447Z,1.30
2022-12-08T03:56:55.669Z,1.17
2022-12-08T03:59:44.958Z,1.30
2022-12-08T04:02:32.214Z,1.50
2022-12-08T04:05:19.341Z,1.40
2022-12-08T04:08:07.054Z,1.47
2022-12-08T04:10:54.116Z,1.43
2022-12-08T04:13:42.955Z,1.13
2022-12-08T04:16:31.790Z,1.50
2022-12-08T04:19:18.744Z,1.40
2022-12-08T04:22:05.582Z,1.60
2022-12-08T04:24:54.108Z,1.57
2022-12-08T04:27:41.018Z,1.57
2022-12-08T04:30:27.881Z,1.33
2022-12-08T04:33:16.378Z,1.13
2022-12-08T04:36:04.721Z,1.30
2022-12-08T04:38:52.064Z,1.33
2022-12-08T04:41:39.311Z,1.47
2022-12-08T04:44:26.783Z,1.87
2022-12-08T04:47:13.707Z,1.17
2022-12-08T04:50:02.593Z,1.30
2022-12-08T04:52:50.000Z,1.53
2022-12-08T04:55:39.411Z,2.23
2022-12-08T04:58:26.485Z,3.63
2022-12-08T05:01:14.446Z,1.60
2022-12-08T05:04:01.681Z,1.63
2022-12-08T05:06:49.922Z,2.00
2022-12-08T05:09:37.106Z,1.63
2022-12-08T05:12:24.345Z,1.30
2022-12-08T05:15:11.246Z,1.20
2022-12-08T05:17:58.268Z,1.73
2022-12-08T05:20:44.996Z,1.37
2022-12-08T05:23:33.654Z,1.07
2022-12-08T05:26:20.398Z,1.03
2022-12-08T05:29:07.447Z,1.17
2022-12-08T05:31:54.299Z,1.10
2022-12-08T05:34:41.426Z,1.10
2022-12-08T05:37:28.235Z,1.00
2022-12-08T05:40:16.757Z,1.50
2022-12-08T05:43:03.963Z,2.07
2022-12-08T05:45:51.217Z,1.33
2022-12-08T05:48:38.626Z,1.20
2022-12-08T05:51:26.042Z,1.23
2022-12-08T05:54:14.266Z,1.70
2022-12-08T05:57:02.991Z,1.70
2022-12-08T05:59:49.883Z,1.20
2022-12-08T06:02:37.050Z,1.57
2022-12-08T06:05:24.193Z,1.77
2022-12-08T06:08:11.895Z,2.00
2022-12-08T06:10:59.132Z,1.67
2022-12-08T06:13:47.457Z,2.13
2022-12-08T06:16:34.441Z,1.43
2022-12-08T06:19:21.894Z,2.00
2022-12-08T06:22:38.914Z,1.33
2022-12-08T06:25:26.224Z,1.37
2022-12-08T06:28:13.013Z,1.70
2022-12-08T06:31:01.594Z,1.97
2022-12-08T06:33:49.074Z,1.30
2022-12-08T06:36:36.202Z,1.33
2022-12-08T06:39:23.558Z,1.43
2022-12-08T06:42:28.072Z,1.30
2022-12-08T06:45:16.679Z,2.07
2022-12-08T06:48:05.286Z,1.00
2022-12-08T06:50:52.320Z,1.80
2022-12-08T06:53:40.585Z,1.07
2022-12-08T06:56:28.212Z,0.60
2022-12-08T06:59:15.352Z,1.23
2022-12-08T07:02:02.838Z,1.20
2022-12-08T07:04:52.585Z,0.90
2022-12-08T07:07:39.990Z,1.10
2022-12-08T07:10:27.021Z,1.30
2022-12-08T07:13:14.088Z,1.23
2022-12-08T07:16:01.281Z,1.10
2022-12-08T07:18:48.750Z,1.40
2022-12-08T07:21:37.183Z,2.23
2022-12-08T07:24:24.667Z,1.10
2022-12-08T07:27:12.059Z,1.80
2022-12-08T07:29:59.143Z,2.13
2022-12-08T07:32:46.691Z,0.90
2022-12-08T07:35:34.972Z,1.60
2022-12-08T07:38:26.811Z,1.20
2022-12-08T07:41:14.737Z,1.60
2022-12-08T07:44:01.963Z,1.10
2022-12-08T07:46:49.064Z,1.33
2022-12-08T07:49:36.161Z,1.70
2022-12-08T07:52:23.724Z,1.50
2022-12-08T07:55:12.192Z,0.97
2022-12-08T07:57:59.157Z,0.87
2022-12-08T08:00:46.577Z,1.07
2022-12-08T08:03:34.600Z,1.43
2022-12-08T08:06:21.831Z,1.37
2022-12-08T08:09:09.018Z,1.63
2022-12-08T08:12:22.670Z,1.73
2022-12-08T08:15:08.632Z,1.37
2022-12-08T08:17:55.817Z,1.90
2022-12-08T08:20:42.826Z,1.80
2022-12-08T08:23:29.948Z,2.30
2022-12-08T08:26:16.937Z,1.80
2022-12-08T08:29:05.490Z,3.30
2022-12-08T08:31:52.512Z,2.77
2022-12-08T08:34:40.048Z,2.80
2022-12-08T08:37:27.398Z,1.97
2022-12-08T08:40:14.410Z,1.87
2022-12-08T08:43:02.137Z,2.07
2022-12-08T08:45:51.971Z,1.70
2022-12-08T08:48:39.543Z,2.47
2022-12-08T08:51:26.556Z,2.47
2022-12-08T08:54:14.698Z,2.27
2022-12-08T08:57:02.336Z,1.60
2022-12-08T08:59:49.119Z,1.90
2022-12-08T09:02:39.618Z,1.80
2022-12-08T09:05:26.856Z,1.30
2022-12-08T09:08:14.043Z,1.40
2022-12-08T09:11:01.372Z,1.60
2022-12-08T09:13:50.322Z,1.87
2022-12-08T09:16:41.950Z,1.47
2022-12-08T09:19:30.773Z,1.50
2022-12-08T09:22:18.075Z,1.50
2022-12-08T09:25:05.427Z,1.40
2022-12-08T09:27:52.408Z,1.77
2022-12-08T09:30:40.058Z,1.40
2022-12-08T09:33:27.402Z,1.40
2022-12-08T09:36:15.820Z,1.43
2022-12-08T09:39:02.762Z,1.20
2022-12-08T09:41:53.980Z,1.10
2022-12-08T09:44:55.249Z,1.33
2022-12-08T09:47:46.888Z,1.30
2022-12-08T09:50:37.988Z,1.17
2022-12-08T09:53:35.786Z,1.30
2022-12-08T09:56:27.019Z,1.47
2022-12-08T09:59:24.760Z,1.20
2022-12-08T10:02:23.075Z,1.50
2022-12-08T10:05:15.352Z,1.20
2022-12-08T10:08:06.955Z,1.10
2022-12-08T10:10:59.132Z,1.40
2022-12-08T10:13:55.714Z,1.30
2022-12-08T10:16:45.684Z,1.75
2022-12-08T10:19:35.558Z,2.00
2022-12-08T10:22:25.360Z,1.57
2022-12-08T10:25:16.864Z,1.87
2022-12-08T10:28:05.357Z,1.93
2022-12-08T10:30:52.361Z,1.70
2022-12-08T10:33:39.360Z,1.87
2022-12-08T10:36:47.358Z,1.63
2022-12-08T10:39:37.579Z,1.70
2022-12-08T10:42:24.606Z,1.50
2022-12-08T10:45:29.308Z,1.27
2022-12-08T10:48:19.539Z,1.40
2022-12-08T10:51:06.590Z,1.70
2022-12-08T10:53:53.987Z,1.63
2022-12-08T10:56:40.988Z,1.40
2022-12-08T10:59:27.691Z,1.70
2022-12-08T11:02:20.811Z,1.30
2022-12-08T11:05:08.518Z,1.40
2022-12-08T11:07:57.173Z,1.40
2022-12-08T11:10:45.846Z,1.40
2022-12-08T11:13:33.064Z,1.37
2022-12-08T11:16:21.521Z,1.30
2022-12-08T11:19:17.707Z,1.80
2022-12-08T11:22:21.373Z,1.30
2022-12-08T11:25:13.439Z,1.10
2022-12-08T11:28:02.557Z,1.30
2022-12-08T11:30:56.180Z,1.23
2022-12-08T11:33:45.723Z,1.30
2022-12-08T11:36:36.727Z,2.50
2022-12-08T11:39:27.174Z,1.07
2022-12-08T11:42:17.486Z,1.00
2022-12-08T11:45:08.561Z,1.10
2022-12-08T11:48:05.934Z,1.10
2022-12-08T11:50:56.870Z,1.50
2022-12-08T11:53:52.653Z,1.10
2022-12-08T11:56:43.853Z,1.00
2022-12-08T11:59:36.051Z,1.10
2022-12-08T12:02:27.580Z,1.13
2022-12-08T12:05:47.609Z,1.27
2022-12-08T12:08:45.613Z,1.30
2022-12-08T12:12:00.243Z,1.40
2022-12-08T12:15:12.689Z,1.30
2022-12-08T12:18:03.129Z,1.20
2022-12-08T12:20:55.628Z,1.10
2022-12-08T12:23:46.999Z,1.00
2022-12-08T12:26:39.077Z,1.30
2022-12-08T12:29:29.285Z,1.10
2022-12-08T12:32:16.142Z,1.10
2022-12-08T12:35:03.132Z,1.40
2022-12-08T12:37:50.705Z,1.23
2022-12-08T12:40:44.526Z,1.53
2022-12-08T12:43:35.620Z,1.83
2022-12-08T12:46:56.251Z,1.30
2022-12-08T12:50:37.166Z,1.20
2022-12-08T12:53:49.844Z,1.37
2022-12-08T12:56:54.588Z,1.03
2022-12-08T12:59:54.666Z,1.40
2022-12-08T13:02:48.988Z,1.60
2022-12-08T13:05:48.260Z,1.20
2022-12-08T13:08:36.741Z,1.20
2022-12-08T13:11:24.733Z,1.40
2022-12-08T13:14:30.187Z,1.17
2022-12-08T13:17:28.593Z,1.37
2022-12-08T13:20:22.747Z,1.20
2022-12-08T13:23:26.837Z,1.20
2022-12-08T13:26:20.551Z,1.40
2022-12-08T13:29:22.797Z,1.07
2022-12-08T13:36:18.492Z,1.10
2022-12-08T13:39:07.553Z,1.50
2022-12-08T13:42:01.925Z,1.13
2022-12-08T13:48:26.112Z,1.47
2022-12-08T13:55:12.980Z,1.67
2022-12-08T13:57:38.625Z,1.40
2022-12-08T14:00:28.458Z,1.90
2022-12-08T14:03:17.331Z,1.53
2022-12-08T14:06:13.172Z,1.50
2022-12-08T14:09:09.954Z,2.13
2022-12-08T14:12:03.526Z,2.17
2022-12-08T14:15:03.026Z,2.27
2022-12-08T14:17:55.281Z,2.20
2022-12-08T14:21:18.992Z,2.40
2022-12-08T14:23:50.429Z,2.60
2022-12-08T14:26:37.316Z,1.47
2022-12-08T14:29:41.025Z,2.93
2022-12-08T14:32:31.498Z,2.97
2022-12-08T14:35:25.333Z,1.90
2022-12-08T14:38:16.423Z,3.23
2022-12-08T14:41:05.950Z,2.53
2022-12-08T14:44:00.839Z,2.20
2022-12-08T14:47:06.429Z,3.33
2022-12-08T14:49:53.771Z,2.23
2022-12-08T14:52:45.587Z,2.77
2022-12-08T14:55:38.406Z,3.40
2022-12-08T14:58:29.838Z,2.23
2022-12-08T15:01:19.275Z,1.80
2022-12-08T15:04:16.662Z,2.13
2022-12-08T15:07:08.659Z,3.17
2022-12-08T15:10:21.455Z,2.13
2022-12-08T15:13:23.478Z,2.63
2022-12-08T15:16:27.095Z,2.07
2022-12-08T15:19:19.100Z,1.83
2022-12-08T15:22:14.899Z,2.13
2022-12-08T15:25:02.559Z,2.37
2022-12-08T15:27:50.763Z,2.00
2022-12-08T15:30:39.230Z,2.20
2022-12-08T15:33:26.868Z,2.23
2022-12-08T15:36:14.037Z,2.37
2022-12-08T15:39:01.485Z,2.07
2022-12-08T15:41:48.224Z,1.90
2022-12-08T15:44:35.409Z,2.30
2022-12-08T15:47:25.360Z,2.20
2022-12-08T15:50:17.746Z,2.33
2022-12-08T15:53:05.222Z,2.43
2022-12-08T15:59:01.265Z,2.93
2022-12-08T16:01:48.627Z,2.10
2022-12-08T16:05:25.330Z,2.10
2022-12-08T16:07:45.305Z,1.60
2022-12-08T16:11:08.467Z,2.03
2022-12-08T16:14:00.845Z,2.20
2022-12-08T16:17:00.821Z,2.27
2022-12-08T16:19:49.539Z,2.67
2022-12-08T16:23:19.671Z,3.87
2022-12-08T16:26:35.563Z,3.27
2022-12-08T16:29:23.356Z,2.83
2022-12-08T16:32:10.629Z,2.47
2022-12-08T16:34:59.084Z,2.90
2022-12-08T16:37:46.336Z,2.17
2022-12-08T16:40:33.426Z,1.83
2022-12-08T16:43:19.480Z,2.10
2022-12-08T16:46:07.181Z,2.40
2022-12-08T16:48:54.539Z,1.70
2022-12-08T16:51:43.940Z,1.97
2022-12-08T16:54:31.369Z,1.83
2022-12-08T16:57:18.761Z,2.00
2022-12-08T17:00:08.950Z,2.27
2022-12-08T17:02:57.069Z,2.27
2022-12-08T17:05:44.723Z,1.90
2022-12-08T17:08:33.028Z,1.60
2022-12-08T17:11:26.582Z,2.20
2022-12-08T17:14:14.676Z,3.13
2022-12-08T17:17:01.642Z,2.10
2022-12-08T17:19:48.950Z,1.90
2022-12-08T17:22:36.996Z,1.93
2022-12-08T17:26:18.785Z,2.13
2022-12-08T17:29:10.706Z,1.87
2022-12-08T17:31:58.139Z,1.57
2022-12-08T17:34:45.275Z,1.97
2022-12-08T17:37:32.753Z,2.07
2022-12-08T17:40:19.909Z,2.67
2022-12-08T17:43:08.223Z,1.77
2022-12-08T17:45:56.275Z,1.90
2022-12-08T17:48:46.791Z,1.93
2022-12-08T17:51:36.461Z,2.40
2022-12-08T17:54:28.733Z,2.20
2022-12-08T17:57:16.088Z,2.70
2022-12-08T18:00:06.302Z,2.63
2022-12-08T18:02:53.487Z,1.67
2022-12-08T18:05:40.834Z,2.37
2022-12-08T18:08:28.105Z,2.13
2022-12-08T18:11:18.511Z,2.50
2022-12-08T18:14:10.058Z,2.07
2022-12-08T18:16:59.195Z,2.03
2022-12-08T18:19:46.299Z,2.57
2022-12-08T18:22:59.545Z,2.20
2022-12-08T18:25:50.082Z,2.30
2022-12-08T18:28:38.028Z,2.23
2022-12-08T18:31:25.474Z,2.20
2022-12-08T18:34:14.228Z,2.20
2022-12-08T18:37:01.233Z,2.43
2022-12-08T18:39:49.064Z,2.27
2022-12-08T18:42:36.057Z,2.30
2022-12-08T18:45:24.263Z,3.20
2022-12-08T18:48:11.271Z,2.60
2022-12-08T18:51:00.018Z,2.67
2022-12-08T18:53:47.311Z,2.73
2022-12-08T18:56:35.269Z,2.23
2022-12-08T18:59:22.942Z,2.73
2022-12-08T19:02:12.131Z,2.90
2022-12-08T19:04:59.387Z,2.40
2022-12-08T19:07:48.165Z,2.17
2022-12-08T19:10:38.252Z,2.97
2022-12-08T19:13:25.374Z,2.40
2022-12-08T19:16:12.899Z,2.07
2022-12-08T19:19:00.423Z,2.97
2022-12-08T19:21:47.958Z,3.40
2022-12-08T19:24:36.945Z,3.03
2022-12-08T19:27:24.558Z,2.50
2022-12-08T19:30:12.988Z,2.17
2022-12-08T19:33:00.444Z,2.90
2022-12-08T19:35:52.682Z,2.77
2022-12-08T19:38:54.654Z,2.70
2022-12-08T19:42:01.089Z,2.40
2022-12-08T19:44:53.716Z,1.77
2022-12-08T19:47:41.828Z,2.37
2022-12-08T19:50:39.083Z,2.80
2022-12-08T19:53:26.497Z,1.63
2022-12-08T19:56:14.348Z,3.67
2022-12-08T19:59:03.002Z,2.70
2022-12-08T20:01:51.361Z,2.67
2022-12-08T20:04:38.525Z,2.93
2022-12-08T20:07:25.778Z,3.00
2022-12-08T20:10:17.382Z,2.57
2022-12-08T20:13:23.491Z,2.50
2022-12-08T20:16:13.301Z,1.77
2022-12-08T20:19:02.192Z,2.97
2022-12-08T20:21:50.010Z,2.63
2022-12-08T20:24:37.107Z,3.33
2022-12-08T20:27:24.926Z,2.27
2022-12-08T20:30:17.009Z,2.00
2022-12-08T20:33:06.073Z,2.30
2022-12-08T20:36:00.384Z,3.10
2022-12-08T20:38:48.313Z,3.50
2022-12-08T20:41:39.086Z,2.70
2022-12-08T20:44:26.955Z,2.40
2022-12-08T20:47:14.623Z,3.27
2022-12-08T20:50:03.728Z,2.50
2022-12-08T20:52:51.206Z,2.10
2022-12-08T20:55:41.228Z,3.10
2022-12-08T20:58:28.198Z,2.43
2022-12-08T21:01:21.149Z,3.00
2022-12-08T21:04:11.799Z,2.37
2022-12-08T21:07:00.696Z,2.43
2022-12-08T21:09:47.842Z,2.33
2022-12-08T21:12:35.278Z,3.17
2022-12-08T21:15:22.436Z,2.53
2022-12-08T21:18:12.573Z,2.57
2022-12-08T21:21:04.514Z,1.77
2022-12-08T21:23:52.721Z,1.87
2022-12-08T21:26:40.114Z,3.00
2022-12-08T21:29:27.444Z,3.63
2022-12-08T21:32:14.646Z,3.50
2022-12-08T21:35:02.392Z,2.67
2022-12-08T21:37:49.871Z,2.73
2022-12-08T21:40:38.399Z,2.67
2022-12-08T21:43:25.484Z,2.50
2022-12-08T21:46:20.757Z,2.47
2022-12-08T21:49:08.117Z,3.33
2022-12-08T21:51:55.681Z,3.50
2022-12-08T21:54:42.868Z,2.93
2022-12-08T21:57:31.639Z,2.37
2022-12-08T22:00:19.973Z,2.70
2022-12-08T22:03:07.995Z,2.67
2022-12-08T22:06:01.003Z,3.70
2022-12-08T22:08:48.350Z,3.43
2022-12-08T22:11:35.747Z,3.70
2022-12-08T22:14:24.409Z,3.47
2022-12-08T22:17:11.942Z,3.40
2022-12-08T22:19:59.139Z,3.93
2022-12-08T22:22:49.200Z,2.90
2022-12-08T22:25:36.239Z,3.73
2022-12-08T22:28:23.476Z,3.60
2022-12-08T22:31:13.904Z,4.07
2022-12-08T22:34:01.596Z,3.13
2022-12-08T22:36:49.146Z,3.03
2022-12-08T22:39:36.906Z,3.10
2022-12-08T22:42:24.142Z,3.57
2022-12-08T22:45:12.095Z,3.50
2022-12-08T22:48:00.796Z,4.07
2022-12-08T22:50:48.194Z,3.70
2022-12-08T22:53:35.293Z,3.37
2022-12-08T22:56:22.807Z,3.73
2022-12-08T22:59:09.911Z,4.07
2022-12-08T23:01:57.298Z,3.47
2022-12-08T23:04:46.536Z,4.23
2022-12-08T23:07:33.959Z,3.20
2022-12-08T23:10:20.949Z,4.03
2022-12-08T23:13:08.264Z,3.83
2022-12-08T23:15:55.279Z,3.40
2022-12-08T23:18:43.691Z,3.50
2022-12-08T23:21:32.268Z,3.20
2022-12-08T23:24:19.467Z,4.13
2022-12-08T23:27:06.910Z,3.37
2022-12-08T23:29:54.717Z,4.17
2022-12-08T23:32:42.320Z,4.37
2022-12-08T23:35:29.622Z,3.73
2022-12-08T23:38:17.878Z,4.00
2022-12-08T23:41:06.486Z,3.43
2022-12-08T23:43:54.128Z,3.47
2022-12-08T23:46:41.209Z,3.13
2022-12-08T23:49:28.538Z,5.00
2022-12-08T23:52:15.728Z,9.80
2022-12-08T23:55:04.413Z,12.73
2022-12-08T23:57:51.535Z,6.90
